Time;durP1;ratioP1;P1;durP2;ratioP2;P2;SDS_P1;SDS_P2;PMS_P1;PMS_P2;Temp;Humidity;BMP_temperature;BMP_pressure;BME280_temperature;BME280_humidity;BME280_pressure;Samples;Min_cycle;Max_cycle;Signal;HPM_P1;HPM_P2
2022/09/14 00:00:55;;;;;;;;;;;;;;;21.74;57.73;100081.34;2286865;78;51516;-77
2022/09/14 00:03:58;;;;;;;;;;;;;;;21.74;57.65;100074.61;2283652;78;51575;-78
2022/09/14 00:07:00;;;;;;;;;;;;;;;21.74;57.49;100078.65;2284425;77;49638;-77
2022/09/14 00:10:01;;;;;;;;;;;;;;;21.74;57.56;100082.69;2259241;78;50367;-79
2022/09/14 00:13:03;;;;;;;;;;;;;;;21.73;57.55;100078.33;2259385;76;50767;-78
2022/09/14 00:16:05;;;;;;;;;;;;;;;21.73;57.66;100076.48;2282431;78;50724;-78
2022/09/14 00:19:08;;;;;;;;;;;;;;;21.71;57.69;100070.48;2284552;78;49629;-78
2022/09/14 00:22:09;;;;;;;;;;;;;;;21.72;57.68;100071.30;2284632;78;53760;-78
2022/09/14 00:25:11;;;;;;;;;;;;;;;21.72;57.60;100069.95;2259037;78;51511;-78
2022/09/14 00:28:12;;;;;;;;;;;;;;;21.72;57.51;100061.88;2282566;78;50322;-77
2022/09/14 00:31:14;;;;;;;;;;;;;;;21.73;57.49;100064.86;2239980;76;51160;-78
2022/09/14 00:34:16;;;;;;;;;;;;;;;21.72;57.50;100067.27;2310660;76;50714;-78
2022/09/14 00:37:18;;;;;;;;;;;;;;;21.71;57.44;100058.37;2321264;76;51424;-78
2022/09/14 00:40:19;;;;;;;;;;;;;;;21.72;57.52;100053.27;2321234;76;51508;-77
2022/09/14 00:43:21;;;;;;;;;;;;;;;21.71;57.52;100047.59;2322892;76;51324;-77
2022/09/14 00:46:22;;;;;;;;;;;;;;;21.71;57.49;100052.16;2321222;76;50470;-78
2022/09/14 00:49:29;;;;;;;;;;;;;;;21.71;57.48;100042.73;2297265;76;50107;-80
2022/09/14 00:52:31;;;;;;;;;;;;;;;21.73;57.35;100041.48;2321239;76;50424;-79
2022/09/14 00:55:33;;;;;;;;;;;;;;;21.72;57.45;100036.30;2322843;76;49588;-78
2022/09/14 00:58:34;;;;;;;;;;;;;;;21.70;57.46;100024.91;2321139;76;50713;-78
2022/09/14 01:01:36;;;;;;;;;;;;;;;21.70;57.41;100025.73;2326031;76;51560;-78
2022/09/14 01:04:38;;;;;;;;;;;;;;;21.71;57.34;100024.70;2305375;76;51577;-78
2022/09/14 01:07:44;;;;;;;;;;;;;;;21.73;57.34;100028.52;2234251;78;51427;-78
2022/09/14 01:11:04;;;;;;;;;;;;;;;21.72;57.35;100026.87;2282779;76;51626;-78
2022/09/14 01:14:13;;;;;;;;;;;;;;;21.70;57.35;100026.27;2282423;78;50746;-78
2022/09/14 01:17:16;;;;;;;;;;;;;;;21.71;57.40;100027.93;2282665;78;51517;-78
2022/09/14 01:20:24;;;;;;;;;;;;;;;21.70;57.31;100023.56;2282930;78;51462;-77
2022/09/14 01:23:44;;;;;;;;;;;;;;;21.69;57.36;100024.09;2282585;78;51481;-78
2022/09/14 01:26:50;;;;;;;;;;;;;;;21.70;57.27;100016.84;2282519;78;50426;-78
2022/09/14 01:29:59;;;;;;;;;;;;;;;21.69;57.34;100020.59;2282641;76;50353;-77
2022/09/14 01:33:14;;;;;;;;;;;;;;;21.68;57.42;100025.65;2266036;78;52874;-78
2022/09/14 01:36:16;;;;;;;;;;;;;;;21.67;57.47;100024.02;2282518;76;51558;-78
2022/09/14 01:39:17;;;;;;;;;;;;;;;21.68;57.28;100020.27;2282568;78;51486;-78
2022/09/14 01:42:20;;;;;;;;;;;;;;;21.67;57.42;100019.44;2282644;76;51546;-78
2022/09/14 01:45:21;;;;;;;;;;;;;;;21.68;57.35;100016.22;2282802;78;50318;-77
2022/09/14 01:48:25;;;;;;;;;;;;;;;21.67;57.42;100020.79;2284186;78;51246;-77
2022/09/14 01:51:28;;;;;;;;;;;;;;;21.70;57.10;100010.11;2282680;78;50769;-77
2022/09/14 01:54:31;;;;;;;;;;;;;;;21.69;57.20;100016.55;2282290;78;51550;-77
2022/09/14 01:57:37;;;;;;;;;;;;;;;21.69;57.19;100016.55;2281741;78;52581;-78
2022/09/14 02:00:40;;;;;;;;;;;;;;;21.68;57.29;100016.22;2257599;78;52507;-78
2022/09/14 02:03:43;;;;;;;;;;;;;;;21.69;57.20;100025.97;2285691;76;50781;-78
2022/09/14 02:06:46;;;;;;;;;;;;;;;21.68;57.15;100023.80;2282891;78;51527;-79
2022/09/14 02:09:47;;;;;;;;;;;;;;;21.67;57.17;100024.83;2259465;78;51582;-78
2022/09/14 02:12:49;;;;;;;;;;;;;;;21.67;57.21;100026.17;2284525;78;50937;-77
2022/09/14 02:15:51;;;;;;;;;;;;;;;21.66;57.19;100022.38;2283046;78;50664;-78
2022/09/14 02:18:52;;;;;;;;;;;;;;;21.70;56.93;100017.66;2282585;78;50777;-77
2022/09/14 02:21:54;;;;;;;;;;;;;;;21.72;57.00;100016.10;2294059;76;51447;-77
2022/09/14 02:24:56;;;;;;;;;;;;;;;21.70;57.17;100024.39;2322770;76;50979;-77
2022/09/14 02:27:57;;;;;;;;;;;;;;;21.70;57.07;100012.27;2321050;76;51480;-77
2022/09/14 02:31:16;;;;;;;;;;;;;;;21.71;56.98;100010.42;2199759;78;50107;-76
2022/09/14 02:34:36;;;;;;;;;;;;;;;21.72;57.07;100012.06;2224701;79;53213;-77
2022/09/14 02:37:45;;;;;;;;;;;;;;;21.73;57.05;100009.66;2203285;79;51117;-77
2022/09/14 02:40:55;;;;;;;;;;;;;;;21.73;57.08;100013.70;2205492;80;50735;-76
2022/09/14 02:44:04;;;;;;;;;;;;;;;21.72;57.06;100009.37;2192641;80;52755;-76
2022/09/14 02:47:10;;;;;;;;;;;;;;;21.73;57.14;100001.58;2205415;80;50434;-76
2022/09/14 02:50:13;;;;;;;;;;;;;;;21.74;57.13;99997.86;2193090;80;52483;-76
2022/09/14 02:53:32;;;;;;;;;;;;;;;21.71;57.37;99995.62;2205212;80;51527;-76
2022/09/14 02:56:33;;;;;;;;;;;;;;;21.72;57.43;99999.95;2205130;80;51812;-77
2022/09/14 02:59:35;;;;;;;;;;;;;;;21.71;57.37;100001.82;2218462;80;51291;-78
2022/09/14 03:02:36;;;;;;;;;;;;;;;21.71;57.40;100002.34;2177798;79;51307;-76
2022/09/14 03:05:38;;;;;;;;;;;;;;;21.71;57.43;99999.66;2208803;79;50751;-75
2022/09/14 03:08:40;;;;;;;;;;;;;;;21.71;57.44;99999.66;2240387;79;50420;-75
2022/09/14 03:11:41;;;;;;;;;;;;;;;21.70;57.50;99993.95;2281964;78;49544;-76
2022/09/14 03:14:43;;;;;;;;;;;;;;;21.69;57.54;99990.97;2281832;78;50112;-76
2022/09/14 03:17:46;;;;;;;;;;;;;;;21.70;57.45;99991.25;2277923;78;50649;-76
2022/09/14 03:20:47;;;;;;;;;;;;;;;21.72;57.40;100002.64;2277991;78;51626;-76
2022/09/14 03:23:50;;;;;;;;;;;;;;;21.71;57.47;100006.39;2281710;78;53636;-76
2022/09/14 03:26:51;;;;;;;;;;;;;;;21.70;57.60;100005.54;2281976;77;49618;-76
2022/09/14 03:29:53;;;;;;;;;;;;;;;21.71;57.61;100007.20;2278025;78;50494;-75
2022/09/14 03:32:54;;;;;;;;;;;;;;;21.71;57.47;99998.31;2257838;78;50615;-76
2022/09/14 03:35:56;;;;;;;;;;;;;;;21.72;57.35;100002.64;2276571;78;50678;-76
2022/09/14 03:38:58;;;;;;;;;;;;;;;21.72;57.31;99994.56;2278908;78;49552;-76
2022/09/14 03:42:00;;;;;;;;;;;;;;;21.73;57.41;99986.77;2276818;78;50749;-75
2022/09/14 03:45:01;;;;;;;;;;;;;;;21.73;57.38;99989.47;2276820;78;50347;-76
2022/09/14 03:48:04;;;;;;;;;;;;;;;21.71;57.52;99989.70;2277330;78;50321;-76
2022/09/14 03:51:06;;;;;;;;;;;;;;;21.72;57.36;99983.27;2278915;77;50132;-76
2022/09/14 03:54:07;;;;;;;;;;;;;;;21.71;57.36;99984.31;2276927;78;52268;-76
2022/09/14 03:57:09;;;;;;;;;;;;;;;21.69;57.57;99985.58;2277102;78;50382;-76
2022/09/14 04:00:11;;;;;;;;;;;;;;;21.70;57.48;99982.66;2277228;77;50736;-76
2022/09/14 04:03:12;;;;;;;;;;;;;;;21.70;57.41;99977.80;2237722;77;49602;-75
2022/09/14 04:06:14;;;;;;;;;;;;;;;21.71;57.39;99984.84;2274931;77;50550;-76
2022/09/14 04:09:17;;;;;;;;;;;;;;;21.72;57.38;99982.44;2278544;78;51623;-75
2022/09/14 04:12:19;;;;;;;;;;;;;;;21.72;57.38;99985.95;2277327;78;49985;-76
2022/09/14 04:15:20;;;;;;;;;;;;;;;21.71;57.32;99982.16;2278611;77;49578;-75
2022/09/14 04:18:22;;;;;;;;;;;;;;;21.71;57.33;99992.39;2277179;78;50313;-75
2022/09/14 04:21:24;;;;;;;;;;;;;;;21.69;57.54;99994.48;2277261;78;50390;-75
2022/09/14 04:24:25;;;;;;;;;;;;;;;21.70;57.52;99993.95;2276878;78;51544;-75
2022/09/14 04:27:27;;;;;;;;;;;;;;;21.70;57.46;99985.87;2250528;78;51010;-74
2022/09/14 04:30:29;;;;;;;;;;;;;;;21.71;57.37;99982.16;2277123;78;51450;-74
2022/09/14 04:33:31;;;;;;;;;;;;;;;21.71;57.36;99970.86;2270283;78;51523;-75
2022/09/14 04:36:32;;;;;;;;;;;;;;;21.71;57.39;99972.73;2258060;78;49823;-74
2022/09/14 04:39:34;;;;;;;;;;;;;;;21.69;57.50;99973.47;2231363;79;52118;-74
2022/09/14 04:42:36;;;;;;;;;;;;;;;21.69;57.52;99970.77;2243134;79;50257;-75
2022/09/14 04:45:37;;;;;;;;;;;;;;;21.69;57.53;99986.93;2243004;79;50313;-75
2022/09/14 04:48:39;;;;;;;;;;;;;;;21.70;57.52;99983.18;2242918;79;50679;-75
2022/09/14 04:51:41;;;;;;;;;;;;;;;21.69;57.50;99982.36;2256277;78;50096;-75
2022/09/14 04:54:42;;;;;;;;;;;;;;;21.70;57.50;99976.45;2242864;79;51579;-75
2022/09/14 04:57:44;;;;;;;;;;;;;;;21.71;57.50;99976.77;2243377;79;50738;-75
2022/09/14 05:00:45;;;;;;;;;;;;;;;21.64;58.00;99968.73;2243519;79;50740;-78
2022/09/14 05:03:50;;;;;;;;;;;;;;;21.62;58.26;99968.13;2242887;78;52619;-80
2022/09/14 05:06:51;;;;;;;;;;;;;;;21.64;58.05;99971.95;2265265;78;50502;-78
2022/09/14 05:09:53;;;;;;;;;;;;;;;21.61;57.86;99964.33;2279427;78;50405;-79
2022/09/14 05:12:54;;;;;;;;;;;;;;;21.60;57.93;99958.62;2233864;78;51598;-77
2022/09/14 05:15:58;;;;;;;;;;;;;;;21.59;57.95;99953.77;2222986;79;49557;-77
2022/09/14 05:19:03;;;;;;;;;;;;;;;21.61;57.79;99954.90;2197781;80;49819;-78
2022/09/14 05:22:05;;;;;;;;;;;;;;;21.61;57.79;99949.52;2212605;80;51570;-79
2022/09/14 05:25:06;;;;;;;;;;;;;;;21.61;57.70;99954.90;2212349;79;51605;-77
2022/09/14 05:28:08;;;;;;;;;;;;;;;21.60;57.73;99965.34;2197814;80;50905;-77
2022/09/14 05:31:11;;;;;;;;;;;;;;;21.58;57.70;99966.94;2215576;78;50807;-77
2022/09/14 05:34:13;;;;;;;;;;;;;;;21.59;57.69;99956.45;2277423;78;51585;-77
2022/09/14 05:37:15;;;;;;;;;;;;;;;21.61;57.52;99958.41;2239825;79;50767;-77
2022/09/14 05:40:16;;;;;;;;;;;;;;;21.65;57.44;99966.86;2241563;79;52960;-77
2022/09/14 05:43:19;;;;;;;;;;;;;;;21.66;57.53;99968.00;2241318;79;51538;-78
2022/09/14 05:46:21;;;;;;;;;;;;;;;21.64;58.20;99975.47;2239816;79;50308;-77
2022/09/14 05:49:24;;;;;;;;;;;;;;;21.63;58.64;99960.86;2241133;78;51581;-77
2022/09/14 05:52:25;;;;;;;;;;;;;;;21.62;58.25;99961.92;2240990;79;49560;-77
2022/09/14 05:55:27;;;;;;;;;;;;;;;21.63;58.61;99966.25;2239597;79;50826;-77
2022/09/14 05:58:28;;;;;;;;;;;;;;;21.63;58.50;99973.83;2241262;79;50670;-78
2022/09/14 06:01:31;;;;;;;;;;;;;;;21.65;58.26;99963.64;2244318;78;50329;-77
2022/09/14 06:04:33;;;;;;;;;;;;;;;21.62;58.48;99950.63;2253151;78;50945;-78
2022/09/14 06:07:35;;;;;;;;;;;;;;;21.63;58.16;99951.44;2273404;78;50334;-77
2022/09/14 06:10:36;;;;;;;;;;;;;;;21.62;58.28;99947.93;2264991;78;50431;-78
2022/09/14 06:13:38;;;;;;;;;;;;;;;21.62;58.45;99948.46;2243092;79;50720;-79
2022/09/14 06:16:40;;;;;;;;;;;;;;;21.62;58.40;99945.77;2256540;78;51776;-78
2022/09/14 06:19:41;;;;;;;;;;;;;;;21.64;58.26;99945.03;2243470;79;52099;-77
2022/09/14 06:22:43;;;;;;;;;;;;;;;21.64;58.22;99939.65;2243439;79;50656;-77
2022/09/14 06:25:44;;;;;;;;;;;;;;;21.63;58.07;99937.98;2254560;77;51546;-78
2022/09/14 06:28:46;;;;;;;;;;;;;;;21.65;58.10;99935.90;2256368;78;51423;-76
2022/09/14 06:31:47;;;;;;;;;;;;;;;21.65;58.14;99936.72;2242970;79;51554;-76
2022/09/14 06:34:49;;;;;;;;;;;;;;;21.66;58.12;99930.83;2259402;78;50399;-77
2022/09/14 06:37:52;;;;;;;;;;;;;;;21.68;57.99;99940.34;2249002;78;50340;-77
2022/09/14 06:40:55;;;;;;;;;;;;;;;21.73;57.66;99936.95;2247027;79;50978;-77
2022/09/14 06:43:57;;;;;;;;;;;;;;;21.73;57.91;99928.88;2247106;79;51514;-77
2022/09/14 06:46:59;;;;;;;;;;;;;;;21.74;57.96;99938.09;2247710;79;50833;-76
2022/09/14 06:50:00;;;;;;;;;;;;;;;21.75;57.92;99935.69;2247298;79;51434;-77
2022/09/14 06:53:02;;;;;;;;;;;;;;;21.75;57.92;99932.18;2247565;79;51513;-77
2022/09/14 06:56:04;;;;;;;;;;;;;;;21.75;58.01;99935.69;2247495;79;51565;-76
2022/09/14 06:59:06;;;;;;;;;;;;;;;21.77;57.88;99939.52;2247716;79;51411;-77
2022/09/14 07:02:08;;;;;;;;;;;;;;;21.75;58.08;99926.27;2247687;79;49993;-77
2022/09/14 07:05:10;;;;;;;;;;;;;;;21.76;57.97;99929.81;2261350;77;50195;-78
2022/09/14 07:08:11;;;;;;;;;;;;;;;21.76;57.88;99937.89;2257590;77;51505;-77
2022/09/14 07:11:13;;;;;;;;;;;;;;;21.74;57.93;99944.83;2247637;79;51456;-77
2022/09/14 07:14:15;;;;;;;;;;;;;;;21.76;57.79;99943.27;2247634;79;51586;-76
2022/09/14 07:17:17;;;;;;;;;;;;;;;21.77;57.75;99948.95;2247028;79;49615;-77
2022/09/14 07:20:18;;;;;;;;;;;;;;;21.74;57.76;99942.66;2247873;79;50717;-77
2022/09/14 07:23:20;;;;;;;;;;;;;;;21.77;57.63;99938.17;2247518;79;51443;-77
2022/09/14 07:26:23;;;;;;;;;;;;;;;21.74;57.67;99941.31;2247803;79;50553;-77
2022/09/14 07:29:25;;;;;;;;;;;;;;;21.76;57.55;99947.31;2222051;79;49635;-78
2022/09/14 07:32:26;;;;;;;;;;;;;;;21.75;57.52;99937.56;2247443;79;50658;-78
2022/09/14 07:35:29;;;;;;;;;;;;;;;21.78;57.43;99942.50;2250938;78;50703;-78
2022/09/14 07:38:31;;;;;;;;;;;;;;;21.79;57.39;99927.19;2283773;77;51585;-79
2022/09/14 07:41:33;;;;;;;;;;;;;;;21.80;57.36;99931.52;2247240;78;52435;-77
2022/09/14 07:44:34;;;;;;;;;;;;;;;21.78;57.32;99932.27;2282142;78;50245;-77
2022/09/14 07:47:36;;;;;;;;;;;;;;;21.79;57.23;99936.62;2212822;80;50402;-78
2022/09/14 07:50:37;;;;;;;;;;;;;;;21.80;57.24;99936.91;2257372;78;50678;-78
2022/09/14 07:53:41;;;;;;;;;;;;;;;21.83;57.14;99939.16;2257468;79;49594;-78
2022/09/14 07:56:43;;;;;;;;;;;;;;;21.82;57.10;99941.03;2255514;79;50302;-78
2022/09/14 07:59:45;;;;;;;;;;;;;;;21.81;57.15;99937.20;2255635;79;51544;-77
2022/09/14 08:02:49;;;;;;;;;;;;;;;21.83;57.12;99935.93;2255220;79;50693;-78
2022/09/14 08:05:53;;;;;;;;;;;;;;;21.84;57.06;99942.98;2224418;77;50938;-77
2022/09/14 08:08:54;;;;;;;;;;;;;;;21.82;57.03;99945.06;2255035;79;50483;-78
2022/09/14 08:11:56;;;;;;;;;;;;;;;21.83;57.04;99941.84;2255633;79;50714;-78
2022/09/14 08:14:58;;;;;;;;;;;;;;;21.83;57.02;99944.01;2255390;79;50321;-77
2022/09/14 08:17:59;;;;;;;;;;;;;;;21.84;56.97;99940.29;2257396;79;49583;-78
2022/09/14 08:21:05;;;;;;;;;;;;;;;21.85;56.92;99941.92;2228523;79;50740;-78
2022/09/14 08:24:07;;;;;;;;;;;;;;;21.84;56.92;99938.13;2273407;77;50261;-77
2022/09/14 08:27:09;;;;;;;;;;;;;;;21.83;56.95;99937.28;2254123;79;49916;-77
2022/09/14 08:30:12;;;;;;;;;;;;;;;21.85;56.89;99939.23;2257360;79;52713;-78
2022/09/14 08:33:14;;;;;;;;;;;;;;;21.82;57.01;99945.06;2259757;77;51579;-79
2022/09/14 08:36:16;;;;;;;;;;;;;;;21.79;57.04;99946.86;2225490;77;51485;-78
2022/09/14 08:39:18;;;;;;;;;;;;;;;21.81;56.92;99938.55;2208823;80;50302;-78
2022/09/14 08:42:19;;;;;;;;;;;;;;;21.82;56.94;99932.13;2166529;81;49477;-78
2022/09/14 08:45:23;;;;;;;;;;;;;;;21.78;57.02;99928.22;2190892;81;51516;-78
2022/09/14 08:48:28;;;;;;;;;;;;;;;21.74;57.07;99921.94;2214367;80;50722;-79
2022/09/14 08:51:30;;;;;;;;;;;;;;;21.75;57.07;99919.53;2210185;80;52430;-78
2022/09/14 08:54:36;;;;;;;;;;;;;;;21.76;57.02;99933.84;2192729;81;49528;-78
2022/09/14 08:57:39;;;;;;;;;;;;;;;21.79;56.94;99932.58;2213209;79;50748;-78
2022/09/14 09:00:42;;;;;;;;;;;;;;;21.79;56.86;99934.75;2210385;79;52748;-79
2022/09/14 09:03:45;;;;;;;;;;;;;;;21.80;56.84;99934.22;2181940;80;51592;-76
2022/09/14 09:06:51;;;;;;;;;;;;;;;21.79;56.80;99934.75;2191440;80;52491;-77
2022/09/14 09:09:53;;;;;;;;;;;;;;;21.80;56.70;99922.09;2181653;80;51472;-79
2022/09/14 09:12:55;;;;;;;;;;;;;;;21.82;56.60;99919.48;2181529;81;50423;-79
2022/09/14 09:15:58;;;;;;;;;;;;;;;21.84;56.57;99917.40;2188366;80;51576;-78
2022/09/14 09:19:02;;;;;;;;;;;;;;;21.85;56.45;99922.25;2194358;80;49664;-78
2022/09/14 09:22:04;;;;;;;;;;;;;;;21.82;56.51;99926.22;2239520;78;50556;-78
2022/09/14 09:25:07;;;;;;;;;;;;;;;21.86;56.48;99926.09;2239934;79;50472;-78
2022/09/14 09:28:10;;;;;;;;;;;;;;;21.84;56.50;99924.66;2257098;78;50672;-78
2022/09/14 09:31:12;;;;;;;;;;;;;;;21.84;56.47;99914.70;2241429;79;51856;-79
2022/09/14 09:34:14;;;;;;;;;;;;;;;21.84;56.47;99926.01;2239880;79;50803;-78
2022/09/14 09:37:17;;;;;;;;;;;;;;;21.84;56.42;99922.78;2240245;79;50770;-78
2022/09/14 09:40:21;;;;;;;;;;;;;;;21.84;56.43;99917.40;2254471;76;50865;-78
2022/09/14 09:43:22;;;;;;;;;;;;;;;21.85;56.40;99913.65;2253723;78;51384;-77
2022/09/14 09:46:24;;;;;;;;;;;;;;;21.86;56.36;99915.31;2286937;78;51473;-77
2022/09/14 09:49:30;;;;;;;;;;;;;;;21.86;56.36;99912.63;2286875;78;51468;-78
2022/09/14 09:52:33;;;;;;;;;;;;;;;21.86;56.34;99908.58;2287012;78;51535;-78
2022/09/14 09:55:36;;;;;;;;;;;;;;;21.88;56.28;99906.99;2279133;78;49303;-79
2022/09/14 09:58:38;;;;;;;;;;;;;;;21.88;56.25;99911.84;2276350;76;51483;-78
2022/09/14 10:01:39;;;;;;;;;;;;;;;21.87;56.25;99909.40;2373240;74;51548;-77
2022/09/14 10:04:42;;;;;;;;;;;;;;;21.85;56.29;99897.48;2352664;74;50726;-78
2022/09/14 10:07:45;;;;;;;;;;;;;;;21.85;56.28;99898.84;2323326;74;51937;-77
2022/09/14 10:10:47;;;;;;;;;;;;;;;21.85;56.24;99900.18;2378622;74;50828;-77
2022/09/14 10:13:50;;;;;;;;;;;;;;;21.84;56.24;99893.16;2382244;74;51494;-77
2022/09/14 10:16:52;;;;;;;;;;;;;;;21.85;56.23;99898.02;2380983;74;52320;-77
2022/09/14 10:19:54;;;;;;;;;;;;;;;21.84;56.21;99890.47;2374094;74;51133;-77
2022/09/14 10:22:55;;;;;;;;;;;;;;;21.83;56.19;99894.19;2374214;74;50054;-78
2022/09/14 10:26:08;;;;;;;;;;;;;;;21.84;56.19;99887.77;2382262;74;50394;-77
2022/09/14 10:29:20;;;;;;;;;;;;;;;21.85;56.17;99881.33;2351883;74;51779;-78
2022/09/14 10:32:24;;;;;;;;;;;;;;;21.85;56.14;99894.80;2347006;74;50955;-78
2022/09/14 10:35:27;;;;;;;;;;;;;;;21.86;56.10;99888.88;2342841;74;22233;-77
2022/09/14 10:38:32;;;;;;;;;;;;;;;21.84;56.15;99889.65;2302131;74;55714;-77
2022/09/14 10:41:38;;;;;;;;;;;;;;;21.85;56.11;99892.10;2287488;78;50563;-77
2022/09/14 10:44:45;;;;;;;;;;;;;;;21.84;56.14;99877.00;2278362;77;51193;-78
2022/09/14 10:47:54;;;;;;;;;;;;;;;21.86;56.08;99876.76;2287348;76;50817;-77
2022/09/14 10:51:06;;;;;;;;;;;;;;;21.84;56.05;99864.06;2261226;78;50797;-78
2022/09/14 10:54:09;;;;;;;;;;;;;;;21.84;56.08;99868.92;2291107;76;50608;-78
2022/09/14 10:57:18;;;;;;;;;;;;;;;21.85;56.04;99858.44;2282091;77;49455;-77
2022/09/14 11:00:20;;;;;;;;;;;;;;;21.86;56.02;99860.60;2291690;77;50865;-78
2022/09/14 11:03:26;;;;;;;;;;;;;;;21.87;55.99;99863.61;2288856;76;50776;-76
2022/09/14 11:06:29;;;;;;;;;;;;;;;21.86;55.99;99866.83;2302719;76;50309;-78
2022/09/14 11:09:32;;;;;;;;;;;;;;;21.85;56.04;99875.12;2294990;76;50257;-77
2022/09/14 11:12:52;;;;;;;;;;;;;;;21.83;56.07;99872.64;2328459;76;50305;-78
2022/09/14 11:15:56;;;;;;;;;;;;;;;21.82;56.07;99873.70;2289392;76;50236;-78
2022/09/14 11:19:16;;;;;;;;;;;;;;;21.85;56.01;99868.39;2285844;77;51515;-77
2022/09/14 11:22:36;;;;;;;;;;;;;;;21.86;55.95;99872.22;2254793;78;52872;-78
2022/09/14 11:25:54;;;;;;;;;;;;;;;21.87;56.03;99876.55;2242095;78;51723;-78
2022/09/14 11:28:57;;;;;;;;;;;;;;;21.87;56.03;99867.66;2289807;77;51487;-77
2022/09/14 11:32:00;;;;;;;;;;;;;;;21.88;56.19;99864.72;2296102;75;51308;-77
2022/09/14 11:35:04;;;;;;;;;;;;;;;21.85;56.26;99861.13;2280701;76;51863;-77
2022/09/14 11:38:16;;;;;;;;;;;;;;;21.88;56.14;99882.75;2325836;76;51359;-78
2022/09/14 11:41:31;;;;;;;;;;;;;;;21.86;56.15;99872.22;2284658;77;51596;-77
2022/09/14 11:44:34;;;;;;;;;;;;;;;21.79;56.31;99867.95;2318288;76;50507;-77
2022/09/14 11:47:37;;;;;;;;;;;;;;;21.84;56.20;99868.10;2318380;76;51220;-78
2022/09/14 11:50:38;;;;;;;;;;;;;;;21.86;56.16;99872.72;2325533;76;50422;-77
2022/09/14 11:53:43;;;;;;;;;;;;;;;21.85;56.12;99865.17;2325238;76;50389;-77
2022/09/14 11:56:48;;;;;;;;;;;;;;;21.87;56.06;99864.95;2325431;76;51479;-77
2022/09/14 11:59:52;;;;;;;;;;;;;;;21.89;55.99;99861.00;2291677;76;50076;-76
2022/09/14 12:03:00;;;;;;;;;;;;;;;21.87;56.09;99849.61;2291485;76;50294;-77
2022/09/14 12:06:03;;;;;;;;;;;;;;;21.86;56.17;99843.09;2292603;76;51642;-79
2022/09/14 12:09:23;;;;;;;;;;;;;;;21.86;56.19;99847.98;2286651;77;51572;-77
2022/09/14 12:12:28;;;;;;;;;;;;;;;21.87;56.28;99854.19;2253787;78;49643;-78
2022/09/14 12:15:32;;;;;;;;;;;;;;;21.84;56.33;99844.69;2286492;78;50774;-78
2022/09/14 12:18:37;;;;;;;;;;;;;;;21.84;56.34;99854.11;2287057;78;51583;-78
2022/09/14 12:21:39;;;;;;;;;;;;;;;21.83;56.42;99853.79;2286953;78;50529;-77
2022/09/14 12:24:40;;;;;;;;;;;;;;;21.84;56.44;99862.72;2256434;76;49569;-77
2022/09/14 12:27:42;;;;;;;;;;;;;;;21.83;56.48;99849.75;2318760;76;50298;-77
2022/09/14 12:30:45;;;;;;;;;;;;;;;21.83;56.46;99840.33;2318861;76;50697;-78
2022/09/14 12:33:53;;;;;;;;;;;;;;;21.85;56.43;99844.97;2318008;76;50708;-78
2022/09/14 12:36:56;;;;;;;;;;;;;;;21.85;56.41;99845.50;2308417;75;22544;-77
2022/09/14 12:40:13;;;;;;;;;;;;;;;21.85;56.31;99847.66;2307258;76;22370;-78
2022/09/14 12:43:35;;;;;;;;;;;;;;;21.82;56.37;99844.08;2305266;76;50923;-78
2022/09/14 12:46:38;;;;;;;;;;;;;;;21.79;56.40;99839.14;2308213;76;51540;-78
2022/09/14 12:49:40;;;;;;;;;;;;;;;21.82;56.26;99829.27;2300732;76;49611;-77
2022/09/14 12:52:49;;;;;;;;;;;;;;;21.85;56.17;99835.55;2308452;76;51705;-78
2022/09/14 12:56:06;;;;;;;;;;;;;;;21.86;56.10;99831.83;2308131;75;50253;-77
2022/09/14 12:59:09;;;;;;;;;;;;;;;21.87;56.05;99830.77;2308247;77;50736;-78
2022/09/14 13:02:15;;;;;;;;;;;;;;;21.90;55.96;99824.10;2308368;77;50644;-77
2022/09/14 13:05:18;;;;;;;;;;;;;;;21.90;55.95;99831.66;2317003;75;51543;-77
2022/09/14 13:08:22;;;;;;;;;;;;;;;21.91;55.91;99822.55;2314105;75;50709;-78
2022/09/14 13:11:25;;;;;;;;;;;;;;;21.92;55.81;99803.98;2298528;77;51603;-77
2022/09/14 13:14:29;;;;;;;;;;;;;;;21.92;55.86;99811.24;2274413;77;49991;-77
2022/09/14 13:17:31;;;;;;;;;;;;;;;21.89;55.92;99807.12;2298637;77;50326;-77
2022/09/14 13:20:33;;;;;;;;;;;;;;;21.89;55.91;99801.73;2298617;77;50739;-77
2022/09/14 13:23:38;;;;;;;;;;;;;;;21.88;55.94;99781.22;2298306;77;50384;-77
2022/09/14 13:26:40;;;;;;;;;;;;;;;21.87;55.93;99771.52;2300144;77;51013;-77
2022/09/14 13:29:41;;;;;;;;;;;;;;;21.84;55.96;99771.97;2298484;77;52288;-77
2022/09/14 13:32:43;;;;;;;;;;;;;;;21.83;56.04;99774.34;2298549;77;51441;-78
2022/09/14 13:35:45;;;;;;;;;;;;;;;21.79;56.08;99776.39;2323864;75;51515;-78
2022/09/14 13:38:47;;;;;;;;;;;;;;;21.77;56.16;99777.13;2375240;74;50192;-77
2022/09/14 13:41:48;;;;;;;;;;;;;;;21.78;56.12;99779.59;2363360;75;50724;-77
2022/09/14 13:44:50;;;;;;;;;;;;;;;21.79;56.04;99774.52;2317601;76;50665;-77
2022/09/14 13:47:52;;;;;;;;;;;;;;;21.79;55.99;99771.83;2317899;76;50318;-77
2022/09/14 13:50:53;;;;;;;;;;;;;;;21.80;55.98;99772.11;2319623;76;52623;-77
2022/09/14 13:53:56;;;;;;;;;;;;;;;21.81;55.94;99780.50;2318187;76;52253;-77
2022/09/14 13:57:13;;;;;;;;;;;;;;;21.80;55.91;99776.16;2293821;76;50489;-77
2022/09/14 14:00:19;;;;;;;;;;;;;;;21.80;55.91;99776.16;2293634;76;50513;-77
2022/09/14 14:03:22;;;;;;;;;;;;;;;21.80;55.91;99772.64;2313818;76;50308;-77
2022/09/14 14:06:25;;;;;;;;;;;;;;;21.80;55.88;99768.07;2250175;76;50321;-76
2022/09/14 14:09:28;;;;;;;;;;;;;;;21.79;55.88;99758.36;2213972;80;51705;-77
2022/09/14 14:12:36;;;;;;;;;;;;;;;21.81;55.82;99754.08;2213982;79;51549;-77
2022/09/14 14:15:39;;;;;;;;;;;;;;;21.80;55.79;99751.91;2213682;79;50945;-77
2022/09/14 14:18:42;;;;;;;;;;;;;;;21.81;55.81;99744.66;2222057;79;50470;-75
2022/09/14 14:21:44;;;;;;;;;;;;;;;21.80;55.80;99748.41;2214227;79;50436;-76
2022/09/14 14:24:46;;;;;;;;;;;;;;;21.78;55.89;99745.11;2238788;77;50687;-75
2022/09/14 14:27:47;;;;;;;;;;;;;;;21.80;56.00;99749.22;2236381;79;49590;-76
2022/09/14 14:30:49;;;;;;;;;;;;;;;21.82;56.43;99739.58;2250267;79;50251;-76
2022/09/14 14:33:52;;;;;;;;;;;;;;;21.95;56.48;99741.56;2275397;76;51606;-76
2022/09/14 14:36:56;;;;;;;;;;;;;;;21.99;56.56;99739.27;2316252;76;50455;-77
2022/09/14 14:39:57;;;;;;;;;;;;;;;21.93;56.63;99727.50;2317469;76;22316;-76
2022/09/14 14:42:58;;;;;;;;;;;;;;;21.90;56.73;99732.00;2296930;76;50764;-75
2022/09/14 14:46:00;;;;;;;;;;;;;;;21.87;57.00;99731.64;2324638;76;50306;-76
2022/09/14 14:49:02;;;;;;;;;;;;;;;21.85;57.01;99737.77;2261388;78;52584;-76
2022/09/14 14:52:03;;;;;;;;;;;;;;;21.84;57.13;99727.53;2287540;78;50377;-77
2022/09/14 14:55:07;;;;;;;;;;;;;;;21.87;57.24;99731.64;2236987;78;50919;-78
2022/09/14 14:58:10;;;;;;;;;;;;;;;21.87;57.32;99744.58;2261937;78;50113;-78
2022/09/14 15:01:12;;;;;;;;;;;;;;;21.87;57.39;99738.38;2254421;77;51036;-78
2022/09/14 15:04:13;;;;;;;;;;;;;;;21.87;57.17;99732.99;2262427;77;50501;-77
2022/09/14 15:07:16;;;;;;;;;;;;;;;21.86;57.03;99722.75;2256698;77;51017;-77
2022/09/14 15:10:18;;;;;;;;;;;;;;;21.84;56.93;99729.41;2235824;79;50697;-77
2022/09/14 15:13:19;;;;;;;;;;;;;;;21.80;56.92;99722.30;2234829;79;50386;-77
2022/09/14 15:16:21;;;;;;;;;;;;;;;21.77;56.94;99716.02;2236713;79;50361;-77
2022/09/14 15:19:22;;;;;;;;;;;;;;;21.78;56.95;99720.34;2210953;79;50085;-77
2022/09/14 15:22:24;;;;;;;;;;;;;;;21.80;56.83;99727.67;2233996;79;51591;-78
2022/09/14 15:25:26;;;;;;;;;;;;;;;21.79;56.96;99716.63;2236192;79;50357;-76
2022/09/14 15:28:27;;;;;;;;;;;;;;;21.80;58.48;99712.87;2236203;79;50750;-76
2022/09/14 15:31:29;;;;;;;;;;;;;;;21.79;58.05;99705.03;2265375;78;50970;-78
2022/09/14 15:34:30;;;;;;;;;;;;;;;21.79;57.34;99705.03;2272515;77;51545;-77
2022/09/14 15:37:32;;;;;;;;;;;;;;;21.81;57.23;99706.95;2283297;76;52487;-77
2022/09/14 15:40:33;;;;;;;;;;;;;;;21.81;58.32;99709.64;2246328;79;51479;-77
2022/09/14 15:43:35;;;;;;;;;;;;;;;21.76;58.70;99703.62;2265909;77;50997;-76
2022/09/14 15:46:43;;;;;;;;;;;;;;;21.79;58.37;99708.55;2277495;78;50397;-74
2022/09/14 15:49:41;;;;;;;;;;;;;;;21.77;58.42;99705.25;2277916;78;22222;-75
2022/09/14 15:52:43;;;;;;;;;;;;;;;21.79;58.04;99705.03;2286892;78;50424;-75